Time;durP1;ratioP1;P1;durP2;ratioP2;P2;SDS_P1;SDS_P2;PMS_P1;PMS_P2;Temp;Humidity;BMP_temperature;BMP_pressure;BME280_temperature;BME280_humidity;BME280_pressure;Samples;Min_cycle;Max_cycle;Signal;HPM_P1;HPM_P2
2024/01/12 00:01:07;;;;;;;16.15;11.65;;;21.00;26.60;;;;;;4948328;28;20054;-55
2024/01/12 00:03:36;;;;;;;17.63;11.60;;;21.10;26.60;;;;;;4945539;29;20055;-55
2024/01/12 00:06:06;;;;;;;18.25;12.23;;;21.10;26.60;;;;;;4947349;29;20480;-53
2024/01/12 00:08:33;;;;;;;16.23;11.32;;;21.10;26.60;;;;;;4943871;29;20499;-55
2024/01/12 00:11:00;;;;;;;18.23;11.48;;;21.20;26.60;;;;;;4947036;29;20051;-48
2024/01/12 00:13:27;;;;;;;17.20;11.57;;;21.20;26.50;;;;;;4949741;29;20060;-54
2024/01/12 00:15:55;;;;;;;16.08;11.70;;;21.20;26.50;;;;;;4949811;29;20062;-56
2024/01/12 00:18:22;;;;;;;17.88;11.77;;;21.30;26.50;;;;;;4945015;29;20051;-51
2024/01/12 00:20:49;;;;;;;16.65;11.48;;;21.30;26.50;;;;;;4948215;29;20051;-51
2024/01/12 00:23:17;;;;;;;19.08;12.98;;;21.30;26.40;;;;;;4947322;29;20066;-55
2024/01/12 00:25:45;;;;;;;17.95;11.95;;;21.30;26.40;;;;;;4948287;29;20055;-56
2024/01/12 00:28:12;;;;;;;18.48;12.80;;;21.30;26.40;;;;;;4949460;28;20439;-55
2024/01/12 00:30:39;;;;;;;16.10;12.05;;;21.20;26.30;;;;;;4949010;29;20538;-56
2024/01/12 00:33:07;;;;;;;16.65;11.95;;;21.20;26.30;;;;;;4948919;29;20047;-54
2024/01/12 00:35:34;;;;;;;17.85;11.60;;;21.20;26.30;;;;;;4948684;29;20078;-53
2024/01/12 00:38:01;;;;;;;16.85;12.13;;;21.20;26.30;;;;;;4948343;29;20051;-53
2024/01/12 00:40:30;;;;;;;21.55;13.05;;;21.10;26.20;;;;;;4948322;28;20055;-53
2024/01/12 00:42:57;;;;;;;17.20;11.90;;;21.10;26.20;;;;;;4946334;29;20051;-52
2024/01/12 00:45:24;;;;;;;18.13;12.13;;;21.10;26.20;;;;;;4946636;29;20066;-52
2024/01/12 00:47:51;;;;;;;17.98;11.98;;;21.10;26.30;;;;;;4946166;29;20730;-53
2024/01/12 00:50:19;;;;;;;18.77;12.55;;;21.00;26.20;;;;;;4943452;29;20066;-52
2024/01/12 00:52:46;;;;;;;18.30;12.63;;;20.90;26.20;;;;;;4947546;29;20571;-54
2024/01/12 00:55:13;;;;;;;16.60;11.77;;;20.90;26.30;;;;;;4948155;29;20051;-52
2024/01/12 00:57:42;;;;;;;17.83;11.95;;;20.90;26.30;;;;;;4945584;29;20047;-52
2024/01/12 01:00:09;;;;;;;18.40;12.25;;;20.90;26.40;;;;;;4945114;29;20056;-52
2024/01/12 01:02:37;;;;;;;17.13;10.25;;;20.90;26.40;;;;;;4944251;29;20056;-52
2024/01/12 01:05:04;;;;;;;17.35;11.43;;;20.90;26.50;;;;;;4944997;29;20054;-52
2024/01/12 01:07:32;;;;;;;15.80;11.13;;;20.90;26.60;;;;;;4944442;29;20066;-50
2024/01/12 01:09:59;;;;;;;16.85;11.45;;;20.90;26.60;;;;;;4946109;29;20051;-54
2024/01/12 01:12:26;;;;;;;17.05;11.23;;;20.90;26.60;;;;;;4944930;29;20051;-53
2024/01/12 01:14:54;;;;;;;17.67;11.27;;;21.00;26.70;;;;;;4946669;29;20051;-52
2024/01/12 01:17:22;;;;;;;15.07;10.70;;;21.00;26.70;;;;;;4945332;29;20062;-54
2024/01/12 01:19:49;;;;;;;16.63;11.38;;;21.00;26.60;;;;;;4946100;29;20511;-54
2024/01/12 01:22:16;;;;;;;16.42;11.00;;;21.10;26.70;;;;;;4946114;29;20483;-53
2024/01/12 01:28:06;;;;;;;14.35;9.95;;;21.00;26.60;;;;;;4944448;29;20038;-53
2024/01/12 01:30:34;;;;;;;15.57;10.45;;;21.10;26.50;;;;;;4944035;29;20428;-54
2024/01/12 01:33:01;;;;;;;16.95;11.25;;;21.10;26.50;;;;;;4944402;29;21053;-55
2024/01/12 01:35:28;;;;;;;17.33;10.50;;;21.10;26.50;;;;;;4944919;29;20066;-53
2024/01/12 01:37:55;;;;;;;15.95;10.95;;;21.00;26.50;;;;;;4944912;28;20051;-55
2024/01/12 01:40:23;;;;;;;17.20;10.77;;;21.10;26.50;;;;;;4949119;29;20059;-52
2024/01/12 01:42:50;;;;;;;15.95;10.45;;;21.00;26.50;;;;;;4949373;29;20054;-52
2024/01/12 01:45:17;;;;;;;16.17;11.45;;;21.00;26.50;;;;;;4947881;29;20070;-53
2024/01/12 01:51:30;;;;;;;18.02;10.82;;;20.90;26.40;;;;;;4950124;28;20058;-53
2024/01/12 01:53:58;;;;;;;18.80;11.63;;;20.90;26.40;;;;;;4927951;29;20052;-54
2024/01/12 01:56:28;;;;;;;15.43;10.57;;;20.90;26.40;;;;;;4928929;29;20048;-54
2024/01/12 01:58:55;;;;;;;16.92;11.07;;;20.80;26.40;;;;;;4929788;29;20079;-54
2024/01/12 02:01:23;;;;;;;16.98;11.27;;;20.80;26.50;;;;;;4929843;29;20059;-52
2024/01/12 02:03:50;;;;;;;16.60;10.82;;;20.80;26.50;;;;;;4930154;29;20062;-55
2024/01/12 02:06:18;;;;;;;16.67;11.90;;;20.70;26.40;;;;;;4927325;29;20540;-55
2024/01/12 02:08:48;;;;;;;15.57;11.05;;;20.70;26.50;;;;;;4929170;29;20066;-52
2024/01/12 02:11:15;;;;;;;16.15;10.75;;;20.60;26.50;;;;;;4929017;29;20058;-54
2024/01/12 02:13:42;;;;;;;18.20;11.45;;;20.60;26.50;;;;;;4930398;29;20056;-54
2024/01/12 02:16:09;;;;;;;16.70;11.10;;;20.50;26.50;;;;;;4927312;29;20058;-52
2024/01/12 02:18:37;;;;;;;14.98;10.63;;;20.50;26.60;;;;;;4931026;29;20489;-54
2024/01/12 02:21:05;;;;;;;14.45;9.85;;;20.50;26.60;;;;;;4929922;29;20047;-53
2024/01/12 02:23:32;;;;;;;14.63;10.10;;;20.50;26.70;;;;;;4927957;29;20055;-53
2024/01/12 02:26:00;;;;;;;13.32;10.02;;;20.60;26.80;;;;;;4929978;29;20051;-54
2024/01/12 02:28:27;;;;;;;16.02;10.50;;;20.60;26.80;;;;;;4929666;29;20056;-53
2024/01/12 02:30:55;;;;;;;18.08;10.43;;;20.70;26.90;;;;;;4929938;29;20056;-54
2024/01/12 02:33:22;;;;;;;16.08;10.38;;;20.70;26.90;;;;;;4928768;29;20054;-52
2024/01/12 02:35:49;;;;;;;15.57;9.35;;;20.70;26.90;;;;;;4928294;29;20413;-53
2024/01/12 02:38:18;;;;;;;15.75;10.23;;;20.80;26.90;;;;;;4928308;29;21101;-53
2024/01/12 02:57:20;;;;;;;16.35;10.27;;;21.00;26.70;;;;;;4978079;28;20033;-59
2024/01/12 02:59:47;;;;;;;13.80;9.68;;;21.00;26.70;;;;;;4965471;28;20055;-59
2024/01/12 03:02:14;;;;;;;13.98;10.32;;;21.00;26.70;;;;;;4962879;28;20058;-58
2024/01/12 03:04:41;;;;;;;14.00;10.30;;;21.00;26.70;;;;;;4967739;28;20051;-59
2024/01/12 03:07:08;;;;;;;16.52;11.20;;;21.00;26.70;;;;;;4965466;28;20058;-57
2024/01/12 03:09:36;;;;;;;15.90;11.30;;;21.00;26.70;;;;;;4965268;28;20050;-52
2024/01/12 03:12:04;;;;;;;15.90;11.18;;;21.00;26.70;;;;;;4966894;28;20063;-58
2024/01/12 03:14:33;;;;;;;16.75;11.05;;;20.90;26.60;;;;;;4967726;28;20058;-57
2024/01/12 03:17:00;;;;;;;16.85;11.00;;;20.90;26.60;;;;;;4965063;28;20051;-56
2024/01/12 03:19:27;;;;;;;16.92;10.90;;;20.90;26.60;;;;;;4966003;28;20400;-54
2024/01/12 03:21:54;;;;;;;16.88;11.25;;;20.80;26.60;;;;;;4965886;28;20400;-57
2024/01/12 03:24:22;;;;;;;15.68;11.20;;;20.80;26.60;;;;;;4964447;28;20058;-57
2024/01/12 03:26:49;;;;;;;17.70;12.27;;;20.80;26.60;;;;;;4964816;28;20059;-56
2024/01/12 03:29:18;;;;;;;17.80;12.02;;;20.80;26.60;;;;;;4967127;28;20518;-52
2024/01/12 03:31:47;;;;;;;16.52;11.35;;;20.70;26.60;;;;;;4966246;28;20051;-52
2024/01/12 03:34:14;;;;;;;16.40;11.20;;;20.70;26.60;;;;;;4966139;28;20088;-57
2024/01/12 03:36:41;;;;;;;18.00;11.60;;;20.70;26.60;;;;;;4964636;28;20057;-56
2024/01/12 03:39:08;;;;;;;17.50;11.35;;;20.60;26.60;;;;;;4963469;28;20047;-57
2024/01/12 03:41:35;;;;;;;18.55;12.25;;;20.60;26.60;;;;;;4965136;28;20055;-52
2024/01/12 03:44:03;;;;;;;16.65;11.98;;;20.50;26.60;;;;;;4965344;28;20082;-57
2024/01/12 03:46:30;;;;;;;16.83;11.55;;;20.50;26.60;;;;;;4956689;28;20059;-57
2024/01/12 03:48:58;;;;;;;18.20;11.32;;;20.50;26.70;;;;;;4962980;28;20635;-57
2024/01/12 03:51:25;;;;;;;18.58;12.00;;;20.50;26.70;;;;;;4964788;28;20500;-49
2024/01/12 03:53:53;;;;;;;18.95;11.77;;;20.50;26.80;;;;;;4962435;28;20065;-57
2024/01/12 03:56:20;;;;;;;16.13;11.05;;;20.40;26.80;;;;;;4965287;28;20051;-57
2024/01/12 03:58:48;;;;;;;17.13;11.32;;;20.50;26.90;;;;;;4966971;28;20050;-56
2024/01/12 04:01:16;;;;;;;15.48;11.15;;;20.50;26.90;;;;;;4963713;28;20051;-55
2024/01/12 04:03:43;;;;;;;16.48;10.60;;;20.50;27.00;;;;;;4966753;28;20055;-54
2024/01/12 04:06:12;;;;;;;15.63;11.30;;;20.60;27.00;;;;;;4965220;28;20055;-50
2024/01/12 04:08:40;;;;;;;15.82;10.70;;;20.70;27.00;;;;;;4963480;28;20069;-52
2024/01/12 04:11:07;;;;;;;14.77;9.82;;;20.70;27.00;;;;;;4963624;28;20058;-54
2024/01/12 04:13:34;;;;;;;29.42;10.80;;;20.70;27.00;;;;;;4970184;28;20323;-56
2024/01/12 04:16:02;;;;;;;17.52;10.13;;;20.70;27.10;;;;;;4964052;28;21227;-55
2024/01/12 04:18:29;;;;;;;26.20;10.10;;;20.80;27.10;;;;;;4959101;28;20058;-55
2024/01/12 04:20:56;;;;;;;20.90;10.52;;;20.90;27.20;;;;;;4968056;28;20516;-58
2024/01/12 04:23:24;;;;;;;21.33;10.45;;;20.90;27.20;;;;;;4963736;28;20062;-55
2024/01/12 04:25:52;;;;;;;18.55;10.57;;;21.00;27.30;;;;;;4965434;28;20066;-57
2024/01/12 04:28:20;;;;;;;22.77;10.52;;;21.00;27.20;;;;;;4968946;28;20057;-57
2024/01/12 04:30:47;;;;;;;19.55;11.57;;;21.00;27.20;;;;;;4966511;28;20055;-57
2024/01/12 04:33:14;;;;;;;22.13;10.98;;;21.00;27.20;;;;;;4967385;28;20051;-57
2024/01/12 04:35:41;;;;;;;23.20;11.52;;;21.10;27.20;;;;;;4966740;28;20062;-56
2024/01/12 04:38:09;;;;;;;22.98;11.05;;;21.10;27.20;;;;;;4967514;28;20697;-57
2024/01/12 04:40:39;;;;;;;23.23;11.60;;;21.20;27.30;;;;;;4969379;28;20057;-57
2024/01/12 04:43:07;;;;;;;27.63;11.43;;;21.20;27.20;;;;;;4966075;28;20487;-57
2024/01/12 04:45:34;;;;;;;19.75;12.57;;;21.20;27.20;;;;;;4970837;28;20496;-57
2024/01/12 04:48:01;;;;;;;43.25;25.15;;;21.30;27.10;;;;;;4974121;28;20403;-58
2024/01/12 04:50:28;;;;;;;72.07;39.28;;;21.30;27.00;;;;;;4974794;28;20624;-57
2024/01/12 04:52:56;;;;;;;53.28;30.50;;;21.30;27.00;;;;;;4976886;28;20466;-58
2024/01/12 04:55:23;;;;;;;35.80;22.88;;;21.30;27.00;;;;;;4968618;28;20070;-58
2024/01/12 04:57:52;;;;;;;31.92;19.55;;;21.30;27.00;;;;;;4942356;29;20060;-58
2024/01/12 05:03:42;;;;;;;29.75;16.98;;;21.30;27.00;;;;;;4949797;28;20047;-54
2024/01/12 05:06:10;;;;;;;28.35;18.02;;;21.30;26.90;;;;;;4938318;29;20419;-57
2024/01/12 05:08:37;;;;;;;25.05;16.33;;;21.20;26.80;;;;;;4945505;29;20061;-58
2024/01/12 05:11:05;;;;;;;31.02;16.95;;;21.20;26.90;;;;;;4945448;29;20411;-57
2024/01/12 05:13:33;;;;;;;23.77;14.93;;;21.10;26.80;;;;;;4941569;28;20432;-58
2024/01/12 05:16:00;;;;;;;31.45;15.30;;;21.10;26.90;;;;;;4944731;28;20059;-57
2024/01/12 05:18:28;;;;;;;26.23;15.25;;;21.10;27.00;;;;;;4940888;28;20078;-57
2024/01/12 05:20:55;;;;;;;31.45;15.93;;;21.10;27.10;;;;;;4946589;29;20051;-56
2024/01/12 05:23:22;;;;;;;20.95;14.13;;;21.10;27.10;;;;;;4943851;28;20508;-56
2024/01/12 05:25:49;;;;;;;21.75;13.93;;;21.10;27.20;;;;;;4944302;29;20055;-57
2024/01/12 05:31:40;;;;;;;26.92;14.00;;;21.10;27.20;;;;;;4947273;29;20038;-57
2024/01/12 05:34:07;;;;;;;33.47;19.33;;;21.20;27.20;;;;;;4944116;28;20412;-56
2024/01/12 05:36:34;;;;;;;45.33;25.00;;;21.30;27.20;;;;;;4942201;29;20398;-57
2024/01/12 05:39:02;;;;;;;34.45;19.52;;;21.30;27.20;;;;;;4941246;29;20082;-56
2024/01/12 05:41:30;;;;;;;32.92;19.05;;;21.30;27.20;;;;;;4940613;29;20052;-55
2024/01/12 05:43:57;;;;;;;33.00;18.05;;;21.30;27.20;;;;;;4937010;29;20054;-56
2024/01/12 05:46:24;;;;;;;31.58;17.90;;;21.30;27.20;;;;;;4944890;28;20063;-57
2024/01/12 05:48:53;;;;;;;28.33;16.48;;;21.30;27.30;;;;;;4944846;28;20063;-56
2024/01/12 05:51:21;;;;;;;31.45;18.00;;;21.30;27.20;;;;;;4945045;29;20400;-57
2024/01/12 05:53:48;;;;;;;25.80;16.15;;;21.30;27.20;;;;;;4945255;29;20428;-58
2024/01/12 05:56:15;;;;;;;24.85;15.95;;;21.30;27.20;;;;;;4944723;29;20064;-57
2024/01/12 05:58:42;;;;;;;26.63;16.42;;;21.30;27.20;;;;;;4942795;28;20048;-57
2024/01/12 06:01:09;;;;;;;26.38;15.70;;;21.30;27.20;;;;;;4935242;29;20051;-57
2024/01/12 06:03:37;;;;;;;26.63;15.32;;;21.30;27.20;;;;;;4938646;28;20064;-57
2024/01/12 06:06:05;;;;;;;24.63;15.20;;;21.30;27.20;;;;;;4946861;28;20058;-56
2024/01/12 06:08:33;;;;;;;101.82;47.17;;;21.30;27.20;;;;;;4946549;29;20063;-58
2024/01/12 06:11:00;;;;;;;75.25;42.55;;;21.20;27.10;;;;;;4935649;29;20051;-57
2024/01/12 06:13:27;;;;;;;63.67;35.97;;;21.20;27.00;;;;;;4947631;28;20058;-58
2024/01/12 06:15:54;;;;;;;53.00;27.25;;;21.20;27.00;;;;;;4946030;29;20047;-55
2024/01/12 06:18:21;;;;;;;41.45;24.48;;;21.10;27.00;;;;;;4943100;28;20059;-59
2024/01/12 06:20:49;;;;;;;41.95;24.15;;;21.10;27.00;;;;;;4945366;29;20531;-58
2024/01/12 06:23:17;;;;;;;41.03;24.13;;;21.10;27.00;;;;;;4948115;29;20062;-57
2024/01/12 06:25:44;;;;;;;36.97;22.60;;;21.00;27.00;;;;;;4947714;29;20408;-57
2024/01/12 06:28:13;;;;;;;34.28;21.23;;;21.00;27.10;;;;;;4951179;29;20419;-56
2024/01/12 06:30:40;;;;;;;33.92;21.25;;;21.00;27.10;;;;;;4946452;29;20510;-58
2024/01/12 06:33:07;;;;;;;36.63;20.15;;;20.90;27.20;;;;;;4949545;29;20515;-58
2024/01/12 06:35:35;;;;;;;30.30;18.90;;;20.90;27.20;;;;;;4951516;29;20051;-59
2024/01/12 06:38:02;;;;;;;30.58;19.58;;;20.90;27.20;;;;;;4948847;29;20055;-57
2024/01/12 06:40:31;;;;;;;36.50;18.85;;;20.90;27.40;;;;;;4947500;29;20058;-58
2024/01/12 06:42:58;;;;;;;26.50;16.50;;;20.90;27.40;;;;;;4947207;28;20070;-58
2024/01/12 06:45:25;;;;;;;40.45;17.95;;;21.00;27.50;;;;;;4946738;29;20051;-58
2024/01/12 06:47:52;;;;;;;28.50;17.00;;;21.00;27.60;;;;;;4943075;28;20062;-56
2024/01/12 06:50:20;;;;;;;26.73;16.17;;;21.10;27.60;;;;;;4942702;28;20058;-57
2024/01/12 06:52:47;;;;;;;27.10;16.27;;;21.10;27.50;;;;;;4941381;28;20530;-58
2024/01/12 06:55:14;;;;;;;22.33;15.10;;;21.10;27.50;;;;;;4945647;28;20055;-57
2024/01/12 06:57:43;;;;;;;26.45;15.88;;;21.20;27.50;;;;;;4941243;28;20059;-57
2024/01/12 07:00:11;;;;;;;23.77;15.05;;;21.20;27.40;;;;;;4941268;28;20052;-57
2024/01/12 07:02:38;;;;;;;24.88;15.23;;;21.20;27.40;;;;;;4939432;28;20078;-56
2024/01/12 07:05:07;;;;;;;26.60;15.27;;;21.20;27.40;;;;;;4945790;28;20054;-58
2024/01/12 07:07:34;;;;;;;25.58;15.63;;;21.30;27.50;;;;;;4941143;28;20074;-57
2024/01/12 07:10:01;;;;;;;24.15;14.43;;;21.30;27.50;;;;;;4942507;28;20054;-56
2024/01/12 07:12:28;;;;;;;24.88;15.00;;;21.40;27.50;;;;;;4947414;28;20530;-58
2024/01/12 07:14:57;;;;;;;27.05;16.23;;;21.40;27.50;;;;;;4942767;28;20500;-55
2024/01/12 07:17:24;;;;;;;32.97;14.80;;;21.40;27.40;;;;;;4943551;28;20055;-55
2024/01/12 07:19:51;;;;;;;22.70;14.52;;;21.50;27.40;;;;;;4943513;28;20062;-56
2024/01/12 07:22:18;;;;;;;21.92;13.35;;;21.50;27.40;;;;;;4941990;28;20675;-56
2024/01/12 07:24:45;;;;;;;22.38;13.77;;;21.50;27.40;;;;;;4942734;28;20059;-57
2024/01/12 07:27:13;;;;;;;21.02;13.23;;;21.60;27.40;;;;;;4941329;28;20055;-56
2024/01/12 07:29:40;;;;;;;21.40;13.60;;;21.60;27.40;;;;;;4944347;28;20051;-56
2024/01/12 07:32:08;;;;;;;29.05;12.60;;;21.60;27.30;;;;;;4943371;28;20063;-55
2024/01/12 07:34:36;;;;;;;24.80;12.70;;;21.60;27.30;;;;;;4943634;28;20074;-62
2024/01/12 07:37:03;;;;;;;27.27;12.63;;;21.70;27.40;;;;;;4946696;28;20059;-63
2024/01/12 07:42:53;;;;;;;21.48;13.32;;;21.70;27.30;;;;;;4950941;28;20494;-62
2024/01/12 07:45:20;;;;;;;20.67;13.15;;;21.70;27.20;;;;;;4939030;28;20047;-62
2024/01/12 07:47:48;;;;;;;23.90;13.98;;;21.60;27.10;;;;;;4946053;28;20515;-62
2024/01/12 07:50:16;;;;;;;27.08;13.73;;;21.60;27.10;;;;;;4944609;28;20059;-63
2024/01/12 07:52:43;;;;;;;23.85;14.32;;;21.60;27.10;;;;;;4944400;28;20620;-63
2024/01/12 07:55:11;;;;;;;23.35;12.80;;;21.50;27.10;;;;;;4934918;28;20051;-63
2024/01/12 07:57:38;;;;;;;19.63;13.18;;;21.50;27.10;;;;;;4945207;28;20058;-63
2024/01/12 08:00:06;;;;;;;23.52;13.15;;;21.50;27.10;;;;;;4946398;28;20054;-62
2024/01/12 08:02:34;;;;;;;21.85;14.73;;;21.40;27.10;;;;;;4946208;28;20058;-62
2024/01/12 08:05:02;;;;;;;21.55;13.60;;;21.40;27.10;;;;;;4940773;28;20055;-64
2024/01/12 08:07:29;;;;;;;20.67;13.20;;;21.40;27.20;;;;;;4941897;28;20058;-63
2024/01/12 08:09:56;;;;;;;25.17;13.25;;;21.30;27.20;;;;;;4946972;28;20508;-63
2024/01/12 08:12:23;;;;;;;25.00;13.48;;;21.30;27.20;;;;;;4944454;28;20394;-63
2024/01/12 08:14:51;;;;;;;18.23;12.10;;;21.20;27.20;;;;;;4943604;28;20050;-63
2024/01/12 08:17:18;;;;;;;20.75;12.48;;;21.20;27.20;;;;;;4941974;28;20055;-62
2024/01/12 08:19:46;;;;;;;31.10;12.73;;;21.10;27.20;;;;;;4944665;28;20067;-61
2024/01/12 08:22:15;;;;;;;32.53;17.98;;;21.10;27.30;;;;;;4938003;28;20051;-61
2024/01/12 08:24:43;;;;;;;46.38;25.67;;;21.10;27.30;;;;;;4940537;28;20055;-61
2024/01/12 08:27:10;;;;;;;63.53;37.90;;;21.10;27.30;;;;;;4941550;28;20055;-61
2024/01/12 08:29:37;;;;;;;40.05;23.63;;;21.20;27.30;;;;;;4938964;28;20054;-61
2024/01/12 08:32:04;;;;;;;29.02;18.08;;;21.20;27.20;;;;;;4941873;28;20055;-61
2024/01/12 08:34:32;;;;;;;24.80;16.17;;;21.20;27.20;;;;;;4942950;28;20059;-61
2024/01/12 08:37:00;;;;;;;23.02;14.85;;;21.20;27.20;;;;;;4941708;28;20430;-60
2024/01/12 08:42:51;;;;;;;25.73;15.55;;;21.20;27.20;;;;;;4946049;28;20039;-58
2024/01/12 08:45:18;;;;;;;23.42;15.30;;;21.30;27.30;;;;;;4936346;28;20050;-60
2024/01/12 08:47:45;;;;;;;22.67;14.23;;;21.30;27.40;;;;;;4940146;28;20047;-60
2024/01/12 08:50:13;;;;;;;22.92;14.48;;;21.30;27.60;;;;;;4944891;28;20404;-60
2024/01/12 08:52:40;;;;;;;21.45;13.73;;;21.30;27.50;;;;;;4942063;28;20491;-60
2024/01/12 08:55:09;;;;;;;20.63;12.00;;;21.40;27.50;;;;;;4943097;28;20055;-60
2024/01/12 08:57:37;;;;;;;20.73;13.13;;;21.40;27.60;;;;;;4936468;28;20595;-60
2024/01/12 09:00:07;;;;;;;21.02;13.13;;;21.40;27.50;;;;;;4933166;28;20063;-60
2024/01/12 09:02:34;;;;;;;26.95;14.45;;;21.50;27.40;;;;;;4944819;28;20055;-58
2024/01/12 09:05:02;;;;;;;19.42;12.07;;;21.50;27.40;;;;;;4938657;28;20069;-59
2024/01/12 09:07:30;;;;;;;43.97;21.58;;;21.60;27.40;;;;;;4940898;28;20062;-61
2024/01/12 09:09:58;;;;;;;37.90;22.38;;;21.60;27.30;;;;;;4940233;28;20058;-57
2024/01/12 09:12:25;;;;;;;42.00;23.25;;;21.60;27.40;;;;;;4939793;28;20062;-57
2024/01/12 09:14:53;;;;;;;33.47;19.70;;;21.70;27.40;;;;;;4940779;28;20070;-58
2024/01/12 09:17:21;;;;;;;30.17;18.40;;;21.70;27.30;;;;;;4939540;28;20067;-57
2024/01/12 09:19:49;;;;;;;27.95;17.45;;;21.70;27.20;;;;;;4946620;28;20514;-58
2024/01/12 09:25:38;;;;;;;27.90;17.17;;;21.70;27.10;;;;;;4939370;28;20049;-58
2024/01/12 09:28:06;;;;;;;26.52;16.73;;;21.80;27.10;;;;;;4941847;28;20059;-58
2024/01/12 09:30:34;;;;;;;26.73;16.45;;;21.70;27.10;;;;;;4942185;28;20047;-58
2024/01/12 09:33:03;;;;;;;23.80;15.27;;;21.70;27.10;;;;;;4942082;28;20051;-60
2024/01/12 09:35:30;;;;;;;25.65;16.05;;;21.70;27.10;;;;;;4939668;28;20209;-61
2024/01/12 09:37:58;;;;;;;24.05;15.63;;;21.70;27.20;;;;;;4936992;28;20059;-64
2024/01/12 09:53:18;;;;;;;19.40;12.07;;;21.50;27.10;;;;;;5802750;23;20400;-60
2024/01/12 10:59:10;;;;;;;17.05;11.25;;;21.20;27.60;;;;;;4886841;29;20051;-60
2024/01/12 11:01:39;;;;;;;15.93;11.00;;;21.30;27.60;;;;;;4890145;29;20056;-61
2024/01/12 11:04:07;;;;;;;17.23;11.52;;;21.30;27.60;;;;;;4894790;29;20395;-60
2024/01/12 11:06:35;;;;;;;17.10;10.88;;;21.30;27.60;;;;;;4896769;29;20493;-60
2024/01/12 11:09:02;;;;;;;16.13;11.30;;;21.30;27.60;;;;;;4893318;29;20055;-59
2024/01/12 11:11:41;;;;;;;17.15;10.88;;;21.30;27.60;;;;;;4893039;29;20069;-58
2024/01/12 11:27:41;;;;;;;22.70;11.52;;;21.30;27.40;;;;;;4900755;29;20047;-61
2024/01/12 11:30:11;;;;;;;24.08;11.55;;;21.30;27.60;;;;;;4893621;29;20068;-60
2024/01/12 11:32:38;;;;;;;16.98;11.77;;;21.20;27.60;;;;;;4893769;29;20417;-60
2024/01/12 11:35:13;;;;;;;21.15;12.45;;;21.20;27.60;;;;;;4905212;29;20067;-60
2024/01/12 11:37:42;;;;;;;20.20;11.73;;;21.20;28.10;;;;;;4904052;29;20410;-60
2024/01/12 11:40:11;;;;;;;20.58;12.38;;;21.10;27.60;;;;;;4902745;29;20561;-60
2024/01/12 11:42:41;;;;;;;24.35;12.48;;;21.10;27.60;;;;;;4898857;29;20056;-60
2024/01/12 11:45:10;;;;;;;18.95;12.40;;;21.10;27.60;;;;;;4898219;29;20486;-61
2024/01/12 11:47:39;;;;;;;18.42;13.18;;;21.00;27.60;;;;;;4898633;29;20053;-60
2024/01/12 11:50:08;;;;;;;18.77;12.07;;;21.00;27.60;;;;;;4902688;29;20509;-61
2024/01/12 11:52:36;;;;;;;23.88;12.35;;;21.00;27.60;;;;;;4911412;29;20071;-61
2024/01/12 11:55:04;;;;;;;18.73;12.63;;;20.90;27.60;;;;;;4908995;29;20063;-59
2024/01/12 11:57:31;;;;;;;19.65;12.45;;;20.90;27.70;;;;;;4907860;29;20068;-60
2024/01/12 12:00:00;;;;;;;18.35;12.68;;;20.80;27.60;;;;;;4911752;29;20382;-60
2024/01/12 12:02:27;;;;;;;20.33;12.57;;;20.80;27.70;;;;;;4908210;29;20083;-60
2024/01/12 12:04:54;;;;;;;19.23;12.80;;;20.80;27.70;;;;;;4908601;29;20517;-62
2024/01/12 12:07:40;;;;;;;18.17;12.68;;;20.80;27.80;;;;;;4887715;29;20764;-62
2024/01/12 12:10:09;;;;;;;20.02;12.45;;;20.70;27.80;;;;;;4886618;29;20403;-60
2024/01/12 12:12:37;;;;;;;20.33;13.30;;;20.70;27.80;;;;;;4887349;29;20060;-61
2024/01/12 12:15:07;;;;;;;19.25;13.10;;;20.60;27.80;;;;;;4890398;29;20479;-63
2024/01/12 12:17:37;;;;;;;18.08;12.23;;;20.60;27.80;;;;;;4886485;29;20061;-64
2024/01/12 12:20:10;;;;;;;19.17;13.18;;;20.60;27.80;;;;;;4889547;29;20421;-63
2024/01/12 12:22:38;;;;;;;20.73;13.63;;;20.50;27.80;;;;;;4887726;29;20059;-64
2024/01/12 12:25:09;;;;;;;18.63;13.05;;;20.50;27.80;;;;;;4887377;29;20402;-64
2024/01/12 12:27:36;;;;;;;20.17;13.15;;;20.50;27.80;;;;;;4888500;29;20429;-64
2024/01/12 12:30:08;;;;;;;18.00;12.73;;;20.40;27.80;;;;;;4886950;29;20505;-66
2024/01/12 12:32:35;;;;;;;19.25;13.10;;;20.40;27.90;;;;;;4888587;29;20550;-67
2024/01/12 12:35:12;;;;;;;17.13;11.77;;;20.40;27.90;;;;;;4888580;29;20057;-61
2024/01/12 12:37:39;;;;;;;16.55;11.55;;;20.40;28.10;;;;;;4889890;29;20059;-62
2024/01/12 13:17:16;;;;;;;16.67;10.05;;;19.90;28.40;;;;;;4892525;29;20067;-61
2024/01/12 13:19:44;;;;;;;15.00;10.50;;;19.80;28.40;;;;;;4884570;29;20059;-62
2024/01/12 13:22:12;;;;;;;15.55;10.18;;;19.80;28.50;;;;;;4887238;29;20060;-59
2024/01/12 13:24:40;;;;;;;14.48;9.50;;;19.80;28.50;;;;;;4891163;29;20409;-60
2024/01/12 13:27:08;;;;;;;16.45;9.57;;;19.70;28.60;;;;;;4897405;29;20053;-60
2024/01/12 13:29:35;;;;;;;13.70;9.57;;;19.70;28.70;;;;;;4884581;29;20056;-60
2024/01/12 13:32:03;;;;;;;26.75;9.60;;;19.70;28.70;;;;;;4889844;29;20067;-59
2024/01/12 13:34:32;;;;;;;21.80;10.82;;;19.80;28.80;;;;;;4892950;29;20061;-62
2024/01/12 13:37:01;;;;;;;24.45;9.75;;;19.80;28.90;;;;;;4894752;29;20068;-62
2024/01/12 13:39:28;;;;;;;19.48;10.18;;;19.80;29.00;;;;;;4887266;29;20076;-62
2024/01/12 13:41:55;;;;;;;19.98;10.70;;;19.90;29.00;;;;;;4897124;29;20052;-62
2024/01/12 13:44:23;;;;;;;17.27;10.77;;;19.90;29.00;;;;;;4890727;29;20060;-62
2024/01/12 13:46:50;;;;;;;18.80;11.05;;;20.00;28.90;;;;;;4907972;29;20410;-62
2024/01/12 13:49:17;;;;;;;17.25;10.85;;;20.10;28.90;;;;;;4898949;29;20433;-62
2024/01/12 13:51:46;;;;;;;18.63;11.60;;;20.10;28.80;;;;;;4901476;29;20512;-62
2024/01/12 13:54:14;;;;;;;20.67;11.50;;;20.20;28.80;;;;;;4896528;29;20534;-62
2024/01/12 13:56:42;;;;;;;19.10;11.48;;;20.30;28.90;;;;;;4897740;29;20052;-62
2024/01/12 13:59:09;;;;;;;17.77;11.55;;;20.40;28.90;;;;;;4895976;29;20067;-62
2024/01/12 14:01:37;;;;;;;19.05;12.38;;;20.40;28.80;;;;;;4896747;29;20052;-62
2024/01/12 14:04:06;;;;;;;17.77;12.10;;;20.50;28.80;;;;;;4898193;29;20067;-62
2024/01/12 14:06:35;;;;;;;17.67;12.60;;;20.50;28.70;;;;;;4897554;29;20064;-62
2024/01/12 14:09:05;;;;;;;21.02;13.15;;;20.60;28.70;;;;;;4896311;29;20052;-62
2024/01/12 14:11:34;;;;;;;22.48;12.57;;;20.70;28.70;;;;;;4893974;29;20404;-62
2024/01/12 14:14:02;;;;;;;21.98;13.25;;;20.70;28.70;;;;;;4895200;29;20063;-62
2024/01/12 14:16:30;;;;;;;20.30;13.13;;;20.80;28.60;;;;;;4901369;29;20068;-62
2024/01/12 14:18:57;;;;;;;26.65;14.65;;;20.80;28.50;;;;;;4924258;29;20047;-62
2024/01/12 14:21:24;;;;;;;27.45;16.25;;;20.80;28.50;;;;;;4922253;29;20060;-62
2024/01/12 14:23:51;;;;;;;26.63;15.70;;;20.90;28.40;;;;;;4917702;29;20408;-62
2024/01/12 14:26:20;;;;;;;23.30;14.43;;;20.90;28.30;;;;;;4917866;29;20064;-62
2024/01/12 14:28:47;;;;;;;24.60;14.57;;;20.90;28.30;;;;;;4905997;29;20306;-62
2024/01/12 14:31:15;;;;;;;19.42;13.73;;;20.90;28.30;;;;;;4919214;29;20056;-62
2024/01/12 14:33:45;;;;;;;22.27;14.98;;;20.90;28.30;;;;;;4911156;29;20059;-62
2024/01/12 14:36:12;;;;;;;28.02;14.75;;;20.90;28.20;;;;;;4924743;29;20062;-60
2024/01/12 14:38:39;;;;;;;23.65;14.85;;;20.90;28.30;;;;;;4914270;29;20048;-59
2024/01/12 14:41:06;;;;;;;28.27;14.70;;;20.90;28.30;;;;;;4924097;29;20048;-59
2024/01/12 14:43:35;;;;;;;33.22;14.43;;;20.90;28.40;;;;;;4919450;29;20417;-61
2024/01/12 14:46:03;;;;;;;25.58;15.30;;;20.90;28.40;;;;;;4920237;29;20056;-60
2024/01/12 14:48:30;;;;;;;24.58;15.10;;;20.80;28.40;;;;;;4931297;29;20508;-60
2024/01/12 14:50:58;;;;;;;24.35;14.95;;;20.80;28.40;;;;;;4927388;29;20066;-60
2024/01/12 14:53:25;;;;;;;28.08;14.80;;;20.80;28.40;;;;;;4916708;29;20060;-60
2024/01/12 14:55:52;;;;;;;25.98;14.20;;;20.80;28.40;;;;;;4918118;29;20505;-59
2024/01/12 14:58:19;;;;;;;26.30;13.80;;;20.80;28.40;;;;;;4914172;29;20414;-59
2024/01/12 15:00:48;;;;;;;25.45;13.68;;;20.80;28.50;;;;;;4918634;29;20062;-60
2024/01/12 15:03:16;;;;;;;21.45;12.50;;;20.90;28.50;;;;;;4917222;29;20056;-59
2024/01/12 15:05:43;;;;;;;20.70;12.55;;;20.90;28.50;;;;;;4918208;29;20408;-59
2024/01/12 15:08:11;;;;;;;37.80;18.63;;;20.90;28.50;;;;;;4918638;29;20051;-60
2024/01/12 15:10:38;;;;;;;34.53;19.83;;;21.00;28.60;;;;;;4919752;29;20520;-59
2024/01/12 15:13:06;;;;;;;49.42;24.40;;;21.00;28.60;;;;;;4910155;29;20056;-61
2024/01/12 15:15:33;;;;;;;49.28;26.30;;;21.10;28.60;;;;;;4911862;29;20067;-59
2024/01/12 15:18:02;;;;;;;42.42;25.50;;;21.10;28.60;;;;;;4896318;29;20643;-57